Terminal Aerodrome Forecast
Issued by NWS Louisville, KY

Home | Current Version | Previous Version | Text Only | Print | Product List | Glossary On
Versions: 1 2 3 4 5 6 7 8 9 10 11 12 13 14 15 16 17
000
FTUS43 KLMK 202342
TAFLEX
TAF
KLEX 202342Z 2100/2124 13007KT P6SM BKN045
     FM210200 19006KT P6SM VCSH BKN025
     FM210500 VRB04KT 4SM BR BKN013
     FM210900 34007KT 4SM BR OVC006
     FM211600 01008KT P6SM BKN025=

USA.gov is the U.S. government's official web portal to all federal, state and local government web resources and services.